Time;durP1;ratioP1;P1;durP2;ratioP2;P2;SDS_P1;SDS_P2;PMS_P1;PMS_P2;Temp;Humidity;BMP_temperature;BMP_pressure;BME280_temperature;BME280_humidity;BME280_pressure;Samples;Min_cycle;Max_cycle;Signal;HPM_P1;HPM_P2
2022/04/23 00:01:15;;;;;;;36.50;27.80;;;10.70;99.90;;;;;;4735618;28;9999771;-72
2022/04/23 00:03:40;;;;;;;39.72;28.80;;;10.60;99.90;;;;;;5088077;28;20024;-72
2022/04/23 00:06:06;;;;;;;37.22;28.40;;;10.70;99.90;;;;;;5086603;28;20020;-72
2022/04/23 00:08:32;;;;;;;37.70;29.70;;;10.70;99.90;;;;;;5100190;28;20031;-72
2022/04/23 00:10:59;;;;;;;37.75;28.92;;;10.70;99.90;;;;;;5087625;28;20536;-72
2022/04/23 00:13:25;;;;;;;41.90;29.67;;;10.80;99.90;;;;;;5093396;28;20116;-72
2022/04/23 00:15:51;;;;;;;38.08;30.00;;;10.70;99.90;;;;;;5096211;28;20047;-72
2022/04/23 00:18:18;;;;;;;38.20;31.23;;;10.80;99.90;;;;;;5091548;28;20093;-72
2022/04/23 00:20:46;;;;;;;38.88;31.45;;;10.80;99.90;;;;;;5097744;28;20035;-71
2022/04/23 00:23:13;;;;;;;37.17;30.33;;;10.80;99.90;;;;;;5097499;28;20658;-71
2022/04/23 00:25:39;;;;;;;37.80;30.33;;;10.80;99.90;;;;;;5088585;28;20031;-71
2022/04/23 00:28:05;;;;;;;39.08;31.92;;;10.90;99.90;;;;;;5094769;28;20474;-71
2022/04/23 00:30:32;;;;;;;38.33;30.73;;;10.90;99.90;;;;;;5095972;28;20032;-71
2022/04/23 00:33:00;;;;;;;39.63;32.85;;;10.90;99.90;;;;;;5095362;28;20059;-72
2022/04/23 00:35:26;;;;;;;39.90;32.33;;;10.90;99.90;;;;;;5090455;28;20484;-72
2022/04/23 00:37:52;;;;;;;36.90;31.42;;;10.90;99.90;;;;;;5088003;28;20036;-71
2022/04/23 00:40:18;;;;;;;37.13;32.03;;;10.90;99.90;;;;;;5096796;28;20822;-72
2022/04/23 00:42:52;;;;;;;38.47;31.98;;;10.90;99.90;;;;;;5098863;28;20043;-72
2022/04/23 00:45:19;;;;;;;37.92;31.05;;;10.90;99.90;;;;;;5096393;28;20507;-71
2022/04/23 00:47:45;;;;;;;37.58;30.70;;;10.90;99.90;;;;;;5099611;28;20061;-71
2022/04/23 00:50:11;;;;;;;38.00;32.53;;;11.00;99.90;;;;;;5085265;28;20016;-71
2022/04/23 00:52:37;;;;;;;38.10;32.28;;;10.90;99.90;;;;;;5086745;28;20160;-72
2022/04/23 00:55:07;;;;;;;38.05;31.17;;;10.90;99.90;;;;;;5089668;28;20023;-72
2022/04/23 00:57:35;;;;;;;37.05;30.70;;;10.90;99.90;;;;;;5091181;28;20032;-72
2022/04/23 01:00:04;;;;;;;36.40;30.52;;;10.90;99.90;;;;;;5093396;28;20031;-72
2022/04/23 01:02:29;;;;;;;36.00;29.02;;;10.90;99.90;;;;;;5097020;28;20065;-72
2022/04/23 01:04:55;;;;;;;36.15;30.50;;;10.90;99.90;;;;;;5096958;28;20027;-72
2022/04/23 01:07:21;;;;;;;35.03;29.95;;;10.90;99.90;;;;;;5101093;28;20063;-72
2022/04/23 01:09:48;;;;;;;37.78;30.33;;;10.90;99.90;;;;;;5094494;28;20427;-72
2022/04/23 01:12:14;;;;;;;34.92;29.98;;;10.90;99.90;;;;;;5091704;28;20137;-72
2022/04/23 01:15:02;;;;;;;37.38;29.98;;;10.90;99.90;;;;;;5093561;28;20028;-73
2022/04/23 01:17:28;;;;;;;39.72;30.52;;;10.90;99.90;;;;;;5091301;28;20043;-72
2022/04/23 01:19:53;;;;;;;38.75;31.58;;;10.90;99.90;;;;;;5087455;28;20019;-72
2022/04/23 01:22:19;;;;;;;37.92;31.63;;;10.90;99.90;;;;;;5087620;28;20035;-72
2022/04/23 01:24:44;;;;;;;37.72;30.90;;;10.90;99.90;;;;;;5089763;28;20115;-72
2022/04/23 01:27:10;;;;;;;37.80;32.05;;;10.90;99.90;;;;;;5084833;28;20691;-72
2022/04/23 01:29:37;;;;;;;39.20;33.00;;;10.90;99.90;;;;;;5086954;28;20022;-72
2022/04/23 01:32:06;;;;;;;38.65;32.80;;;10.90;99.90;;;;;;5100980;28;20046;-72
2022/04/23 01:34:32;;;;;;;38.53;32.35;;;10.90;99.90;;;;;;5087306;28;20032;-72
2022/04/23 01:36:58;;;;;;;38.35;32.00;;;10.90;99.90;;;;;;5093943;28;20391;-72
2022/04/23 01:39:24;;;;;;;40.40;34.63;;;10.80;99.90;;;;;;5089259;28;20032;-72
2022/04/23 01:41:50;;;;;;;40.78;34.50;;;10.90;99.90;;;;;;5088481;28;20505;-72
2022/04/23 01:44:15;;;;;;;41.88;33.20;;;10.80;99.90;;;;;;5087140;28;20449;-72
2022/04/23 01:46:41;;;;;;;42.08;33.65;;;10.90;99.90;;;;;;5088952;28;20036;-72
2022/04/23 01:49:07;;;;;;;42.75;35.20;;;10.80;99.90;;;;;;5088217;28;20023;-72
2022/04/23 01:51:33;;;;;;;43.53;35.10;;;10.90;99.90;;;;;;5091899;28;20531;-72
2022/04/23 01:53:58;;;;;;;42.63;35.97;;;10.90;99.90;;;;;;5093414;28;20373;-72
2022/04/23 01:56:25;;;;;;;42.42;33.72;;;10.90;99.90;;;;;;5090230;28;20029;-72
2022/04/23 01:58:51;;;;;;;42.15;34.50;;;10.90;99.90;;;;;;5086531;28;20043;-71
2022/04/23 02:01:17;;;;;;;43.55;35.92;;;10.80;99.90;;;;;;5086885;28;20028;-71
2022/04/23 02:03:43;;;;;;;42.90;36.17;;;10.80;99.90;;;;;;5089817;28;20081;-71
2022/04/23 02:06:09;;;;;;;43.97;37.35;;;10.80;99.90;;;;;;5086147;28;20626;-71
2022/04/23 02:08:34;;;;;;;43.38;36.85;;;10.80;99.90;;;;;;5092059;28;20127;-72
2022/04/23 02:11:00;;;;;;;43.30;36.42;;;10.80;99.90;;;;;;5091515;28;20032;-72
2022/04/23 02:13:27;;;;;;;46.65;38.20;;;10.80;99.90;;;;;;5090653;28;20032;-72
2022/04/23 02:15:52;;;;;;;48.40;39.03;;;10.70;99.90;;;;;;5093600;28;20020;-72
2022/04/23 02:18:21;;;;;;;47.17;38.58;;;10.70;99.90;;;;;;5091190;28;20028;-72
2022/04/23 02:20:47;;;;;;;45.75;37.65;;;10.70;99.90;;;;;;5088010;28;20048;-72
2022/04/23 02:23:12;;;;;;;46.70;38.13;;;10.70;99.90;;;;;;5094517;28;20079;-72
2022/04/23 02:25:38;;;;;;;47.78;37.47;;;10.70;99.90;;;;;;5088300;28;20110;-72
2022/04/23 02:28:04;;;;;;;46.63;37.30;;;10.70;99.90;;;;;;5099595;28;20054;-72
2022/04/23 02:30:31;;;;;;;53.30;40.05;;;10.70;99.90;;;;;;5089559;28;20654;-72
2022/04/23 02:32:56;;;;;;;49.30;39.45;;;10.70;99.90;;;;;;5093251;28;20090;-72
2022/04/23 02:35:22;;;;;;;47.63;38.47;;;10.70;99.90;;;;;;5084612;28;20020;-72
2022/04/23 02:37:50;;;;;;;47.35;39.20;;;10.60;99.90;;;;;;5096728;28;20020;-72
2022/04/23 02:40:16;;;;;;;50.97;39.20;;;10.60;99.90;;;;;;5104581;28;20027;-72
2022/04/23 02:42:42;;;;;;;48.17;39.25;;;10.60;99.90;;;;;;5091807;28;20032;-72
2022/04/23 02:45:09;;;;;;;46.67;38.05;;;10.60;99.90;;;;;;5094867;28;20063;-72
2022/04/23 02:47:56;;;;;;;54.03;39.85;;;10.60;99.90;;;;;;5093109;28;20032;-72
2022/04/23 02:50:27;;;;;;;47.70;39.38;;;10.60;99.90;;;;;;5093697;28;20031;-72
2022/04/23 02:52:57;;;;;;;50.17;41.05;;;10.60;99.90;;;;;;5100248;28;20105;-72
2022/04/23 02:55:24;;;;;;;50.47;40.85;;;10.60;99.90;;;;;;5085244;28;20492;-72
2022/04/23 02:57:50;;;;;;;50.38;41.20;;;10.60;99.90;;;;;;5092444;28;20039;-72
2022/04/23 03:00:16;;;;;;;51.80;41.10;;;10.60;99.90;;;;;;5095602;28;20036;-72
2022/04/23 03:02:42;;;;;;;50.72;40.65;;;10.60;99.90;;;;;;5092048;28;20119;-72
2022/04/23 03:05:14;;;;;;;52.28;41.03;;;10.60;99.90;;;;;;5089530;28;20088;-71
2022/04/23 03:07:40;;;;;;;51.80;41.60;;;10.50;99.90;;;;;;5088230;28;20024;-72
2022/04/23 03:10:08;;;;;;;53.35;40.63;;;10.60;99.90;;;;;;5095599;28;20023;-72
2022/04/23 03:12:36;;;;;;;51.67;41.75;;;10.60;99.90;;;;;;5099970;28;20032;-72
2022/04/23 03:15:07;;;;;;;58.67;44.53;;;10.60;99.90;;;;;;5087091;28;20024;-72
2022/04/23 03:17:32;;;;;;;53.30;42.05;;;10.50;99.90;;;;;;5090220;28;20471;-72
2022/04/23 03:19:58;;;;;;;55.17;43.13;;;10.50;99.90;;;;;;5095643;28;20039;-72
2022/04/23 03:22:24;;;;;;;51.58;41.33;;;10.60;99.90;;;;;;5085687;28;20036;-72
2022/04/23 03:24:49;;;;;;;51.25;39.83;;;10.50;99.90;;;;;;5087325;28;20081;-72
2022/04/23 03:27:15;;;;;;;53.03;41.67;;;10.50;99.90;;;;;;5083440;28;20028;-72
2022/04/23 03:29:41;;;;;;;54.00;41.80;;;10.50;99.90;;;;;;5090610;28;20051;-72
2022/04/23 03:32:07;;;;;;;55.63;42.72;;;10.50;99.90;;;;;;5093844;28;20043;-72
2022/04/23 03:34:33;;;;;;;53.85;41.63;;;10.50;99.90;;;;;;5085038;28;20019;-72
2022/04/23 03:36:58;;;;;;;57.40;43.25;;;10.50;99.90;;;;;;5083653;28;20031;-72
2022/04/23 03:39:24;;;;;;;55.70;44.08;;;10.50;99.90;;;;;;5086383;28;20036;-72
2022/04/23 03:41:50;;;;;;;52.53;41.65;;;10.50;99.90;;;;;;5085333;28;20080;-72
2022/04/23 03:44:16;;;;;;;54.08;42.45;;;10.50;99.90;;;;;;5086028;28;20057;-72
2022/04/23 03:46:41;;;;;;;56.58;43.30;;;10.50;99.90;;;;;;5087382;28;20109;-72
2022/04/23 03:49:10;;;;;;;56.50;43.80;;;10.50;99.90;;;;;;5092059;28;20443;-72
2022/04/23 03:51:35;;;;;;;56.13;43.30;;;10.50;99.90;;;;;;5091008;28;20027;-72
2022/04/23 03:54:01;;;;;;;57.25;43.10;;;10.50;99.90;;;;;;5094629;28;20169;-72
2022/04/23 03:56:28;;;;;;;60.42;42.25;;;10.50;99.90;;;;;;5088501;28;20031;-73
2022/04/23 03:58:54;;;;;;;52.75;41.03;;;10.40;99.90;;;;;;5091646;28;20024;-72
2022/04/23 04:01:20;;;;;;;57.00;42.80;;;10.50;99.90;;;;;;5093954;28;20030;-72
2022/04/23 04:03:46;;;;;;;53.97;42.45;;;10.50;99.90;;;;;;5096072;28;20468;-72
2022/04/23 04:06:11;;;;;;;55.13;42.92;;;10.40;99.90;;;;;;5103223;28;20028;-72
2022/04/23 04:08:37;;;;;;;53.60;41.58;;;10.40;99.90;;;;;;5093657;28;20028;-72
2022/04/23 04:11:03;;;;;;;60.00;45.05;;;10.40;99.90;;;;;;5089061;28;20024;-72
2022/04/23 04:13:28;;;;;;;56.38;43.53;;;10.40;99.90;;;;;;5104196;28;20221;-72
2022/04/23 04:15:55;;;;;;;58.55;44.40;;;10.40;99.90;;;;;;5086993;28;20056;-72
2022/04/23 04:18:21;;;;;;;62.97;47.00;;;10.40;99.90;;;;;;5092913;28;20032;-72
2022/04/23 04:20:53;;;;;;;65.38;46.08;;;10.40;99.90;;;;;;5098712;28;20462;-72
2022/04/23 04:23:20;;;;;;;61.97;46.50;;;10.40;99.90;;;;;;5097586;28;20043;-72
2022/04/23 04:25:47;;;;;;;62.40;46.72;;;10.40;99.90;;;;;;5087667;28;20031;-72
2022/04/23 04:28:13;;;;;;;62.78;45.25;;;10.40;99.90;;;;;;5090079;28;20035;-71
2022/04/23 04:33:22;;;;;;;64.70;47.30;;;10.40;99.90;;;;;;5092432;28;20070;-72
2022/04/23 04:35:48;;;;;;;67.88;48.25;;;10.40;99.90;;;;;;5092359;28;20468;-72
2022/04/23 04:38:14;;;;;;;68.25;48.55;;;10.40;99.90;;;;;;5091057;28;20032;-72
2022/04/23 04:40:39;;;;;;;67.00;47.08;;;10.40;99.90;;;;;;5095860;28;20158;-71
2022/04/23 04:43:05;;;;;;;68.70;48.90;;;10.40;99.90;;;;;;5107657;28;20032;-71
2022/04/23 04:45:30;;;;;;;68.25;48.92;;;10.40;99.90;;;;;;5090638;28;20115;-72
2022/04/23 04:47:56;;;;;;;70.63;50.00;;;10.30;99.90;;;;;;5088298;28;20032;-71
2022/04/23 04:50:23;;;;;;;67.75;48.97;;;10.40;99.90;;;;;;4738814;28;10000219;-71
2022/04/23 04:52:49;;;;;;;70.88;50.45;;;10.30;99.90;;;;;;5092082;28;20105;-71
2022/04/23 04:55:15;;;;;;;72.88;50.03;;;10.30;99.90;;;;;;5089255;28;20039;-72
2022/04/23 04:57:41;;;;;;;72.63;51.42;;;10.30;99.90;;;;;;5092089;28;20055;-70
2022/04/23 05:00:08;;;;;;;73.10;50.45;;;10.30;99.90;;;;;;5098067;28;20623;-71
2022/04/23 05:02:33;;;;;;;70.18;48.90;;;10.30;99.90;;;;;;5086568;28;20081;-71
2022/04/23 05:04:59;;;;;;;70.78;48.42;;;10.30;99.90;;;;;;5089658;28;20028;-71
2022/04/23 05:07:24;;;;;;;74.40;49.40;;;10.30;99.90;;;;;;5093090;28;20043;-72
2022/04/23 05:09:50;;;;;;;71.68;49.17;;;10.30;99.90;;;;;;5089063;28;20024;-71
2022/04/23 05:12:15;;;;;;;71.25;49.50;;;10.30;99.90;;;;;;5097929;28;20502;-71
2022/04/23 05:14:41;;;;;;;72.55;49.65;;;10.30;99.90;;;;;;5083201;28;20031;-72
2022/04/23 05:17:07;;;;;;;72.43;50.92;;;10.30;99.90;;;;;;5096173;28;20032;-71
2022/04/23 05:19:32;;;;;;;73.85;50.35;;;10.30;99.90;;;;;;5096906;28;20039;-71
2022/04/23 05:21:58;;;;;;;71.15;50.38;;;10.30;99.90;;;;;;5098373;28;20476;-71
2022/04/23 05:24:24;;;;;;;72.25;49.60;;;10.40;99.90;;;;;;5084522;28;20093;-71
2022/04/23 05:26:50;;;;;;;73.18;51.25;;;10.40;99.90;;;;;;5085003;28;20111;-71
2022/04/23 05:29:15;;;;;;;71.40;50.10;;;10.40;99.90;;;;;;5086830;28;20376;-71
2022/04/23 05:31:41;;;;;;;75.65;50.00;;;10.40;99.90;;;;;;5097692;28;20048;-71
2022/04/23 05:34:06;;;;;;;73.13;48.58;;;10.40;99.90;;;;;;5088494;28;20034;-71
2022/04/23 05:36:32;;;;;;;68.93;48.67;;;10.50;99.90;;;;;;5087447;28;20094;-70
2022/04/23 05:38:58;;;;;;;74.93;50.92;;;10.50;99.90;;;;;;5101592;28;20080;-71
2022/04/23 05:41:24;;;;;;;71.95;49.65;;;10.50;99.90;;;;;;5093887;28;20031;-71
2022/04/23 05:43:49;;;;;;;72.05;48.83;;;10.50;99.90;;;;;;5086665;28;20479;-71
2022/04/23 05:46:17;;;;;;;70.07;49.22;;;10.50;99.90;;;;;;5086969;28;20020;-70
2022/04/23 05:48:44;;;;;;;70.40;49.25;;;10.50;99.90;;;;;;5097537;28;20046;-71
2022/04/23 05:51:10;;;;;;;74.53;50.75;;;10.60;99.90;;;;;;5098161;28;20032;-70
2022/04/23 05:53:36;;;;;;;67.32;48.08;;;10.60;99.90;;;;;;5087251;28;20027;-71
2022/04/23 05:56:01;;;;;;;70.38;47.83;;;10.60;99.90;;;;;;5090637;28;20074;-70
2022/04/23 05:58:27;;;;;;;70.90;47.63;;;10.50;99.90;;;;;;5101841;28;20239;-70
2022/04/23 06:00:54;;;;;;;73.97;48.70;;;10.60;99.90;;;;;;5099701;28;20027;-71
2022/04/23 06:03:20;;;;;;;71.22;48.70;;;10.50;99.90;;;;;;5103421;28;20280;-71
2022/04/23 06:05:46;;;;;;;71.07;47.83;;;10.60;99.90;;;;;;5096744;28;20027;-71
2022/04/23 06:08:11;;;;;;;67.82;47.50;;;10.60;99.90;;;;;;5093366;28;20051;-71
2022/04/23 06:10:37;;;;;;;67.13;46.83;;;10.60;99.90;;;;;;5088278;28;20028;-71
2022/04/23 06:13:06;;;;;;;68.07;47.35;;;10.70;99.90;;;;;;5088248;28;20020;-71
2022/04/23 06:15:31;;;;;;;67.03;46.13;;;10.70;99.90;;;;;;5090664;28;20062;-71
2022/04/23 06:17:57;;;;;;;69.72;47.85;;;10.80;99.90;;;;;;5095653;28;20084;-71
2022/04/23 06:20:23;;;;;;;71.95;48.10;;;10.90;99.90;;;;;;5098794;28;20028;-70
2022/04/23 06:22:48;;;;;;;68.28;46.97;;;11.00;99.90;;;;;;5096115;28;20081;-71
2022/04/23 06:25:14;;;;;;;65.22;45.47;;;11.10;99.90;;;;;;5089558;28;20038;-72
2022/04/23 06:27:39;;;;;;;64.00;44.63;;;11.20;99.90;;;;;;5095213;28;20035;-71
2022/04/23 06:30:09;;;;;;;68.35;46.95;;;11.30;99.90;;;;;;5089594;28;20032;-71
2022/04/23 06:32:38;;;;;;;69.80;44.88;;;11.30;99.90;;;;;;5086075;28;20040;-70
2022/04/23 06:35:04;;;;;;;64.32;45.38;;;11.20;99.90;;;;;;5085333;28;20625;-71
2022/04/23 06:37:30;;;;;;;66.45;46.42;;;11.20;99.90;;;;;;5094987;28;20031;-71
2022/04/23 06:39:56;;;;;;;65.65;46.55;;;11.10;99.90;;;;;;5093750;28;20031;-71
2022/04/23 06:42:21;;;;;;;70.00;45.50;;;11.10;99.90;;;;;;5092344;28;20032;-71
2022/04/23 06:44:48;;;;;;;63.28;44.88;;;11.10;99.90;;;;;;5087984;28;20020;-71
2022/04/23 06:47:17;;;;;;;67.97;44.88;;;11.10;99.90;;;;;;5099206;28;20028;-71
2022/04/23 06:49:42;;;;;;;66.93;47.40;;;11.00;99.90;;;;;;5088513;28;20048;-71
2022/04/23 06:52:08;;;;;;;63.67;46.65;;;11.00;99.90;;;;;;5088693;28;20113;-71
2022/04/23 06:54:33;;;;;;;66.68;47.75;;;11.00;99.90;;;;;;5087053;28;20701;-71
2022/04/23 06:56:59;;;;;;;66.45;47.25;;;11.00;99.90;;;;;;5086475;28;20032;-71
2022/04/23 06:59:26;;;;;;;66.63;46.75;;;11.00;99.90;;;;;;5096179;28;20036;-71
2022/04/23 07:01:51;;;;;;;64.53;45.72;;;11.00;99.90;;;;;;5091241;28;20028;-71
2022/04/23 07:04:17;;;;;;;66.35;46.22;;;11.00;99.90;;;;;;5102377;28;20061;-71
2022/04/23 07:06:43;;;;;;;64.03;45.20;;;11.00;99.90;;;;;;5093039;28;20023;-70
2022/04/23 07:09:08;;;;;;;65.55;46.55;;;11.00;99.90;;;;;;5092253;28;20035;-71
2022/04/23 07:11:34;;;;;;;67.75;47.00;;;10.90;99.90;;;;;;5086975;28;20385;-71
2022/04/23 07:14:00;;;;;;;71.93;47.70;;;10.90;99.90;;;;;;5093971;28;20023;-70
2022/04/23 07:16:25;;;;;;;69.10;47.47;;;10.90;99.90;;;;;;5094668;28;20052;-71
2022/04/23 07:18:52;;;;;;;65.47;45.85;;;10.90;99.90;;;;;;5097903;28;20024;-71
2022/04/23 07:21:19;;;;;;;66.78;45.95;;;10.90;99.90;;;;;;5096716;28;20043;-71
2022/04/23 07:24:03;;;;;;;70.68;46.55;;;11.00;99.90;;;;;;5089254;28;20063;-71
2022/04/23 07:26:29;;;;;;;66.35;46.13;;;11.00;99.90;;;;;;5092555;28;20051;-71
2022/04/23 07:28:54;;;;;;;64.15;44.70;;;11.10;99.90;;;;;;5100667;28;20101;-71
2022/04/23 07:31:20;;;;;;;63.65;44.20;;;11.20;99.90;;;;;;5107355;28;20046;-71
2022/04/23 07:39:14;;;;;;;64.00;43.83;;;11.40;99.90;;;;;;5092337;28;20736;-72
2022/04/23 07:41:40;;;;;;;62.67;43.28;;;11.60;99.90;;;;;;5101388;28;20028;-71
2022/04/23 07:44:06;;;;;;;64.35;43.78;;;11.70;99.90;;;;;;5096152;28;20387;-73
2022/04/23 07:46:31;;;;;;;61.95;42.33;;;11.80;99.90;;;;;;5091697;28;20028;-70
2022/04/23 07:48:58;;;;;;;63.33;43.13;;;12.00;99.90;;;;;;5090650;28;20081;-70
2022/04/23 07:51:27;;;;;;;60.03;41.38;;;12.20;99.90;;;;;;5095022;28;20055;-70
2022/04/23 07:53:56;;;;;;;60.47;40.95;;;12.50;99.90;;;;;;5093019;28;20024;-71
2022/04/23 07:56:22;;;;;;;57.38;39.95;;;12.60;99.90;;;;;;5092157;28;20020;-71
2022/04/23 07:58:48;;;;;;;56.75;40.28;;;12.50;99.90;;;;;;5090382;28;20038;-71
2022/04/23 08:01:14;;;;;;;58.28;41.25;;;12.60;99.90;;;;;;5097963;28;20509;-71
2022/04/23 08:03:41;;;;;;;56.10;40.33;;;12.60;99.90;;;;;;5083993;28;20036;-70
2022/04/23 08:06:10;;;;;;;55.97;39.90;;;12.70;99.90;;;;;;5093978;28;20492;-70
2022/04/23 08:08:36;;;;;;;55.95;40.47;;;12.90;99.90;;;;;;5089175;28;20115;-71
2022/04/23 08:11:02;;;;;;;54.55;38.53;;;13.00;99.90;;;;;;5093300;28;20425;-71
2022/04/23 08:13:28;;;;;;;56.80;40.08;;;13.20;99.90;;;;;;5090635;28;20085;-71
2022/04/23 08:15:53;;;;;;;53.40;39.00;;;13.20;99.90;;;;;;5088261;28;20066;-70
2022/04/23 08:18:19;;;;;;;55.97;39.70;;;13.40;99.90;;;;;;5094922;28;20028;-71
2022/04/23 08:20:45;;;;;;;55.88;40.55;;;13.40;99.90;;;;;;5101288;28;20112;-71
2022/04/23 08:23:11;;;;;;;54.72;39.00;;;13.40;99.90;;;;;;5087996;28;20036;-79
2022/04/23 08:25:37;;;;;;;51.70;38.22;;;;;;;;;;5094648;28;20035;-80
2022/04/23 08:30:48;;;;;;;54.83;39.72;;;;;;;;;;5095525;28;20031;-80
2022/04/23 08:33:14;;;;;;;51.30;37.80;;;;;;;;;;5097074;28;20403;-78
2022/04/23 08:35:40;;;;;;;48.20;38.38;;;;;;;;;;5093200;28;20077;-81
2022/04/23 08:38:07;;;;;;;46.45;36.80;;;;;;;;;;5109660;28;20028;-80
2022/04/23 08:40:37;;;;;;;46.10;37.22;;;;;;;;;;5088674;28;20055;-80
2022/04/23 08:43:03;;;;;;;44.42;35.33;;;;;;;;;;5090372;28;20093;-80
2022/04/23 08:45:31;;;;;;;41.28;34.35;;;13.40;99.90;;;;;;5094961;28;20036;-80
2022/04/23 08:47:59;;;;;;;42.13;34.78;;;13.30;99.90;;;;;;5094631;28;20439;-79
2022/04/23 08:50:26;;;;;;;40.85;33.25;;;13.40;99.90;;;;;;5098096;28;20061;-79
2022/04/23 08:52:56;;;;;;;45.03;34.88;;;13.30;99.90;;;;;;5104069;28;20039;-80
2022/04/23 08:55:22;;;;;;;44.45;34.22;;;13.30;99.90;;;;;;5097035;28;20028;-81
2022/04/23 08:57:48;;;;;;;42.35;35.05;;;13.40;99.90;;;;;;5097756;28;20066;-79
2022/04/23 09:00:15;;;;;;;40.80;33.83;;;13.40;99.90;;;;;;5097681;28;20487;-80
2022/04/23 09:02:42;;;;;;;41.78;34.67;;;13.40;99.90;;;;;;5094315;28;20111;-81
2022/04/23 09:05:11;;;;;;;41.03;33.75;;;13.30;99.90;;;;;;5089642;28;20032;-81
2022/04/23 09:07:37;;;;;;;40.55;33.20;;;13.30;99.90;;;;;;5095306;28;20035;-80
2022/04/23 09:10:03;;;;;;;44.85;35.17;;;13.40;99.90;;;;;;5091493;28;20051;-80
2022/04/23 09:12:30;;;;;;;42.53;33.25;;;13.60;99.90;;;;;;5089517;28;20316;-79
2022/04/23 09:23:39;;;;;;;37.95;30.63;;;13.80;99.90;;;;;;5094252;28;20016;-80
2022/04/23 09:23:39;;;;;;;34.30;28.45;;;14.10;99.90;;;;;;5089306;28;20602;-81
2022/04/23 09:26:18;;;;;;;31.70;26.60;;;14.20;99.90;;;;;;5102897;28;20083;-80
2022/04/23 09:28:50;;;;;;;33.30;27.15;;;14.20;99.90;;;;;;5103063;28;20024;-82
2022/04/23 09:31:16;;;;;;;34.03;26.98;;;14.10;99.90;;;;;;5091038;28;20392;-80
2022/04/23 09:33:46;;;;;;;31.08;25.80;;;14.10;99.90;;;;;;5085395;28;20024;-81
2022/04/23 09:36:12;;;;;;;32.53;25.23;;;14.20;99.90;;;;;;5085753;28;20028;-81
2022/04/23 09:38:40;;;;;;;29.98;24.23;;;14.10;99.90;;;;;;5096694;28;20023;-80
2022/04/23 09:41:19;;;;;;;29.50;24.50;;;14.30;99.90;;;;;;5106318;28;20058;-83
2022/04/23 09:44:04;;;;;;;27.40;23.45;;;14.60;99.90;;;;;;5111267;28;20031;-80
2022/04/23 09:46:45;;;;;;;27.20;22.90;;;14.70;99.90;;;;;;5101616;28;20110;-81
2022/04/23 09:49:12;;;;;;;26.45;21.95;;;15.00;99.90;;;;;;5100051;28;20082;-81
2022/04/23 09:51:38;;;;;;;26.38;21.92;;;15.10;99.90;;;;;;5095546;28;20171;-81
2022/04/23 09:54:04;;;;;;;24.92;21.42;;;15.30;99.90;;;;;;5109015;28;20028;-81
2022/04/23 09:56:29;;;;;;;25.13;21.33;;;15.30;99.90;;;;;;5096260;28;20502;-81
2022/04/23 09:58:56;;;;;;;23.63;20.45;;;15.50;99.90;;;;;;5089339;28;20047;-81
2022/04/23 10:01:23;;;;;;;25.17;21.25;;;15.70;99.90;;;;;;5096622;28;20081;-81
2022/04/23 10:03:52;;;;;;;24.52;20.83;;;15.90;99.90;;;;;;5101062;28;20046;-81
2022/04/23 10:06:20;;;;;;;22.55;20.15;;;15.80;99.90;;;;;;5098416;28;20114;-81
2022/04/23 10:08:51;;;;;;;21.50;18.88;;;15.80;99.90;;;;;;5096955;28;20032;-82
2022/04/23 10:11:29;;;;;;;21.98;19.10;;;15.70;99.90;;;;;;5089133;28;20059;-81
2022/04/23 10:14:05;;;;;;;21.15;17.48;;;15.90;99.90;;;;;;5096352;28;20031;-81
2022/04/23 10:16:32;;;;;;;21.23;18.73;;;16.00;99.90;;;;;;5092906;28;20039;-81
2022/04/23 10:18:58;;;;;;;20.13;17.92;;;16.10;99.90;;;;;;5107387;28;20064;-80
2022/04/23 10:21:31;;;;;;;21.88;18.00;;;16.10;99.90;;;;;;5092078;28;20036;-80
2022/04/23 10:24:18;;;;;;;20.65;18.45;;;16.20;99.90;;;;;;5101553;28;20053;-78
2022/04/23 10:26:59;;;;;;;21.27;18.98;;;16.20;99.90;;;;;;5091120;28;20051;-79
2022/04/23 10:29:27;;;;;;;22.27;19.73;;;16.00;99.90;;;;;;5083576;28;20602;-82
2022/04/23 10:32:14;;;;;;;24.73;19.20;;;15.90;99.90;;;;;;5098433;28;20517;-80
2022/04/23 10:34:41;;;;;;;23.70;19.90;;;15.70;99.90;;;;;;5093953;28;20547;-81
2022/04/23 10:37:18;;;;;;;25.13;20.13;;;15.40;99.90;;;;;;5091196;28;20035;-80
2022/04/23 10:39:51;;;;;;;24.23;20.60;;;15.20;99.90;;;;;;5087828;28;20020;-80
2022/04/23 10:42:17;;;;;;;23.13;20.58;;;15.00;99.90;;;;;;5096339;28;20079;-79
2022/04/23 10:44:44;;;;;;;23.10;19.98;;;15.00;99.90;;;;;;5085456;28;20043;-82
2022/04/23 10:47:35;;;;;;;26.08;20.55;;;14.90;99.90;;;;;;5091948;28;20043;-80
2022/04/23 10:50:18;;;;;;;21.77;19.42;;;15.10;99.90;;;;;;5096551;28;20523;-81
2022/04/23 10:52:45;;;;;;;25.17;19.58;;;15.20;99.90;;;;;;5100614;28;20051;-77
2022/04/23 10:55:14;;;;;;;21.23;18.92;;;15.20;99.90;;;;;;5103315;28;20534;-76
2022/04/23 10:57:47;;;;;;;21.58;18.80;;;15.10;99.90;;;;;;5109404;28;20031;-76
2022/04/23 11:00:20;;;;;;;20.58;18.40;;;15.10;99.90;;;;;;5094101;28;20514;-76
2022/04/23 11:03:10;;;;;;;22.10;19.40;;;15.20;99.90;;;;;;5094018;28;20032;-76
2022/04/23 11:13:58;;;;;;;22.25;18.77;;;15.80;99.90;;;;;;5092601;28;20644;-78
2022/04/23 11:16:30;;;;;;;20.83;18.63;;;15.70;99.90;;;;;;5096293;28;20403;-78
2022/04/23 11:18:58;;;;;;;23.88;18.52;;;15.50;99.90;;;;;;5095212;28;20662;-78
2022/04/23 11:21:28;;;;;;;23.70;19.17;;;15.50;99.90;;;;;;5098187;28;20119;-78
2022/04/23 11:23:56;;;;;;;21.77;19.48;;;15.60;99.90;;;;;;5091688;28;20051;-78
2022/04/23 11:26:49;;;;;;;21.77;19.48;;;15.60;99.90;;;;;;5094443;28;20608;-78
2022/04/23 11:29:15;;;;;;;20.02;17.90;;;15.50;99.90;;;;;;5094086;28;20085;-78
2022/04/23 11:31:49;;;;;;;20.30;18.20;;;15.40;99.90;;;;;;5095098;28;20603;-78
2022/04/23 11:34:14;;;;;;;20.58;18.48;;;15.40;99.90;;;;;;5092310;28;20678;-78
2022/04/23 11:36:40;;;;;;;20.55;18.45;;;15.30;99.90;;;;;;5090021;28;20020;-78
2022/04/23 11:39:09;;;;;;;20.98;17.67;;;15.10;99.90;;;;;;5083738;28;20551;-78
2022/04/23 11:41:42;;;;;;;20.42;18.20;;;15.10;99.90;;;;;;5097339;28;20043;-78
2022/04/23 11:47:11;;;;;;;19.60;17.50;;;15.10;99.90;;;;;;5106871;28;20039;-79
2022/04/23 11:49:37;;;;;;;19.05;17.15;;;15.20;99.70;;;;;;5099362;28;20452;-79
2022/04/23 11:52:10;;;;;;;18.67;16.77;;;15.20;99.70;;;;;;5103794;28;20023;-78
2022/04/23 11:54:38;;;;;;;18.33;16.48;;;15.30;98.70;;;;;;5101208;28;20030;-77
2022/04/23 11:57:07;;;;;;;18.55;16.65;;;15.50;99.40;;;;;;5095596;28;20035;-79
2022/04/23 11:59:37;;;;;;;18.25;16.45;;;15.50;98.10;;;;;;5095245;28;20044;-80
2022/04/23 12:02:25;;;;;;;17.10;15.30;;;15.60;98.60;;;;;;5099078;28;20104;-79
2022/04/23 12:04:58;;;;;;;17.92;16.13;;;15.70;97.80;;;;;;5096064;28;20103;-78
2022/04/23 12:07:24;;;;;;;;;;;16.00;98.40;;;;;;5094774;28;20038;-80
2022/04/23 12:09:57;;;;;;;18.35;16.35;;;16.20;96.50;;;;;;5092710;28;20162;-81
2022/04/23 12:12:26;;;;;;;18.70;16.85;;;16.50;97.00;;;;;;5100745;28;20391;-81
2022/04/23 12:14:56;;;;;;;17.00;15.32;;;16.50;97.00;;;;;;4741219;28;9999889;-81
2022/04/23 12:17:26;;;;;;;16.42;14.68;;;16.30;97.00;;;;;;5094411;28;20751;-80
2022/04/23 12:19:56;;;;;;;16.98;15.27;;;;;;;;;;5102342;28;20089;-81
2022/04/23 12:22:32;;;;;;;17.27;15.57;;;16.10;94.90;;;;;;5088218;28;20088;-80
2022/04/23 12:25:18;;;;;;;17.80;16.00;;;15.90;95.90;;;;;;5085691;28;20031;-81
2022/04/23 12:42:03;;;;;;;12.73;11.27;;;15.30;94.80;;;;;;5093811;28;20074;-80
2022/04/23 12:44:35;;;;;;;12.70;11.35;;;15.40;94.50;;;;;;5088378;28;20024;-80
2022/04/23 12:47:03;;;;;;;12.52;11.23;;;15.60;95.90;;;;;;5103355;28;20027;-79
2022/04/23 12:49:48;;;;;;;11.65;10.45;;;15.70;95.00;;;;;;5092389;28;20103;-77
2022/04/23 12:52:36;;;;;;;10.77;8.75;;;15.60;95.10;;;;;;5096095;28;20502;-76
2022/04/23 12:55:15;;;;;;;10.82;8.43;;;15.90;93.90;;;;;;5072619;28;20038;-75
2022/04/23 12:57:44;;;;;;;15.32;8.38;;;16.10;90.80;;;;;;5096777;28;20077;-79
2022/04/23 13:00:13;;;;;;;9.25;8.35;;;16.20;91.50;;;;;;5092662;28;20380;-79
2022/04/23 13:02:40;;;;;;;8.60;7.70;;;16.40;90.70;;;;;;5092479;28;20047;-80
2022/04/23 13:05:08;;;;;;;12.23;9.05;;;16.70;91.30;;;;;;5094743;28;20031;-79
2022/04/23 13:10:19;;;;;;;8.13;6.45;;;16.40;91.50;;;;;;5103419;28;20519;-79
2022/04/23 13:12:44;;;;;;;8.65;6.38;;;16.10;87.70;;;;;;5092351;28;20032;-77
2022/04/23 13:15:11;;;;;;;8.23;6.95;;;16.40;96.50;;;;;;5085928;28;20783;-75
2022/04/23 13:17:38;;;;;;;8.88;5.68;;;16.50;79.50;;;;;;5086260;28;20058;-81
2022/04/23 13:20:08;;;;;;;7.57;6.35;;;16.60;80.90;;;;;;5088452;28;20444;-81